createdAt,value
2018-10-17T00:00:13.261Z,16.20
2018-10-17T00:00:46.882Z,16.10
2018-10-17T00:01:20.511Z,16.10
2018-10-17T00:01:54.176Z,16.20
2018-10-17T00:02:27.858Z,16.00
2018-10-17T00:03:01.492Z,16.10
2018-10-17T00:03:35.140Z,16.10
2018-10-17T00:04:08.788Z,16.00
2018-10-17T00:04:42.625Z,16.00
2018-10-17T00:05:16.305Z,16.10
2018-10-17T00:05:50.010Z,16.10
2018-10-17T00:06:23.884Z,16.10
2018-10-17T00:06:57.568Z,16.10
2018-10-17T00:07:31.258Z,16.00
2018-10-17T00:08:05.429Z,16.00
2018-10-17T00:08:39.104Z,16.00
2018-10-17T00:09:12.752Z,16.10
2018-10-17T00:09:46.462Z,16.00
2018-10-17T00:10:20.173Z,16.00
2018-10-17T00:10:54.173Z,16.00
2018-10-17T00:11:27.801Z,15.90
2018-10-17T00:12:01.627Z,16.10
2018-10-17T00:12:35.397Z,16.00
2018-10-17T00:13:09.152Z,16.00
2018-10-17T00:13:42.793Z,15.90
2018-10-17T00:14:16.389Z,16.00
2018-10-17T00:14:50.019Z,16.00
2018-10-17T00:15:23.649Z,15.90
2018-10-17T00:15:57.261Z,15.90
2018-10-17T00:16:30.935Z,15.90
2018-10-17T00:17:05.787Z,15.90
2018-10-17T00:17:39.414Z,15.90
2018-10-17T00:18:13.108Z,15.90
2018-10-17T00:18:46.753Z,15.90
2018-10-17T00:19:20.427Z,15.90
2018-10-17T00:19:54.109Z,15.90
2018-10-17T00:20:27.807Z,15.90
2018-10-17T00:21:01.713Z,15.90
2018-10-17T00:21:35.401Z,15.90
2018-10-17T00:22:09.170Z,15.90
2018-10-17T00:22:42.807Z,15.80
2018-10-17T00:23:16.503Z,15.90
2018-10-17T00:23:50.071Z,15.80
2018-10-17T00:24:23.717Z,15.80
2018-10-17T00:24:57.416Z,15.80
2018-10-17T00:25:31.073Z,15.90
2018-10-17T00:26:05.172Z,15.80
2018-10-17T00:26:38.814Z,15.80
2018-10-17T00:27:12.497Z,15.80
2018-10-17T00:27:46.139Z,15.80
2018-10-17T00:28:19.830Z,15.80
2018-10-17T00:28:53.504Z,15.80
2018-10-17T00:29:27.152Z,15.70
2018-10-17T00:30:00.839Z,15.80
2018-10-17T00:30:34.510Z,15.80
2018-10-17T00:31:08.343Z,15.80
2018-10-17T00:31:41.891Z,15.80
2018-10-17T00:32:15.559Z,15.70
2018-10-17T00:32:49.179Z,15.70
2018-10-17T00:33:23.151Z,15.80
2018-10-17T00:33:56.834Z,15.70
2018-10-17T00:34:30.456Z,15.80
2018-10-17T00:35:05.231Z,15.70
2018-10-17T00:35:38.873Z,15.70
2018-10-17T00:36:12.575Z,15.70
2018-10-17T00:36:46.321Z,15.70
2018-10-17T00:37:20.111Z,15.70
2018-10-17T00:37:53.769Z,15.70
2018-10-17T00:38:27.407Z,15.70
2018-10-17T00:39:00.995Z,15.70
2018-10-17T00:39:34.643Z,15.70
2018-10-17T00:40:08.419Z,15.70
2018-10-17T00:40:42.109Z,15.80
2018-10-17T00:41:15.845Z,15.70
2018-10-17T00:41:49.383Z,15.70
2018-10-17T00:42:23.041Z,15.70
2018-10-17T00:42:56.716Z,15.70
2018-10-17T00:43:30.359Z,15.70
2018-10-17T00:44:04.303Z,15.60
2018-10-17T00:44:37.922Z,15.60
2018-10-17T00:45:11.563Z,15.70
2018-10-17T00:45:45.207Z,15.70
2018-10-17T00:46:18.815Z,15.70
2018-10-17T00:46:52.496Z,15.60
2018-10-17T00:47:26.123Z,15.70
2018-10-17T00:47:59.735Z,15.70
2018-10-17T00:48:33.363Z,15.70
2018-10-17T00:49:07.166Z,15.70
2018-10-17T00:49:40.767Z,15.70
2018-10-17T00:50:14.405Z,15.60
2018-10-17T00:50:48.063Z,15.60
2018-10-17T00:51:21.695Z,15.70
2018-10-17T00:51:55.409Z,15.60
2018-10-17T00:52:29.086Z,15.60
2018-10-17T00:53:02.732Z,15.70
2018-10-17T00:53:36.378Z,15.70
2018-10-17T00:54:09.981Z,15.60
2018-10-17T00:54:43.639Z,15.70
2018-10-17T00:55:17.316Z,15.70
2018-10-17T00:55:50.952Z,15.60
2018-10-17T00:56:24.610Z,15.60
2018-10-17T00:56:58.231Z,15.70
2018-10-17T00:57:31.835Z,15.60
2018-10-17T00:58:05.931Z,15.70
2018-10-17T00:58:39.560Z,15.70
2018-10-17T00:59:14.442Z,15.60
2018-10-17T00:59:47.982Z,15.60
2018-10-17T01:00:21.609Z,15.60
2018-10-17T01:00:55.292Z,15.60
2018-10-17T01:01:28.916Z,15.60
2018-10-17T01:02:02.589Z,15.60
2018-10-17T01:02:36.226Z,15.60
2018-10-17T01:03:09.921Z,15.60
2018-10-17T01:03:43.552Z,15.60
2018-10-17T01:04:17.167Z,15.60
2018-10-17T01:04:50.852Z,15.50
2018-10-17T01:05:24.500Z,15.50
2018-10-17T01:05:58.195Z,15.50
2018-10-17T01:06:32.824Z,15.60
2018-10-17T01:07:06.536Z,15.60
2018-10-17T01:07:40.200Z,15.60
2018-10-17T01:08:13.907Z,15.50
2018-10-17T01:08:47.540Z,15.50
2018-10-17T01:09:21.142Z,15.60
2018-10-17T01:09:54.828Z,15.60
2018-10-17T01:10:28.456Z,15.50
2018-10-17T01:11:02.178Z,15.50
2018-10-17T01:11:36.660Z,15.50
2018-10-17T01:12:10.336Z,15.50
2018-10-17T01:12:43.961Z,15.50
2018-10-17T01:13:17.598Z,15.50
2018-10-17T01:13:51.260Z,15.50
2018-10-17T01:14:24.928Z,15.60
2018-10-17T01:14:58.568Z,15.60
2018-10-17T01:15:32.182Z,15.50
2018-10-17T01:16:06.028Z,15.50
2018-10-17T01:16:39.724Z,15.50
2018-10-17T01:17:13.506Z,15.50
2018-10-17T01:17:47.160Z,15.60
2018-10-17T01:18:20.780Z,15.50
2018-10-17T01:18:54.458Z,15.40
2018-10-17T01:19:28.106Z,15.60
2018-10-17T01:20:01.754Z,15.60
2018-10-17T01:20:35.402Z,15.50
2018-10-17T01:21:09.049Z,15.60
2018-10-17T01:21:42.700Z,15.50
2018-10-17T01:22:16.356Z,15.50
2018-10-17T01:22:50.198Z,15.40
2018-10-17T01:23:23.824Z,15.50
2018-10-17T01:23:57.492Z,15.50
2018-10-17T01:24:31.154Z,15.40
2018-10-17T01:25:05.484Z,15.50
2018-10-17T01:25:39.132Z,15.50
2018-10-17T01:26:12.857Z,15.50
2018-10-17T01:26:46.474Z,15.50
2018-10-17T01:27:20.107Z,15.50
2018-10-17T01:27:53.772Z,15.40
2018-10-17T01:28:27.456Z,15.50
2018-10-17T01:29:01.189Z,15.40
2018-10-17T01:29:34.904Z,15.50
2018-10-17T01:30:08.614Z,15.40
2018-10-17T01:30:42.267Z,15.40
2018-10-17T01:31:16.037Z,15.50
2018-10-17T01:31:49.560Z,15.40
2018-10-17T01:32:23.215Z,15.40
2018-10-17T01:32:56.858Z,15.40
2018-10-17T01:33:30.508Z,15.50
2018-10-17T01:34:04.348Z,15.40
2018-10-17T01:34:37.994Z,15.50
2018-10-17T01:35:11.693Z,15.40
2018-10-17T01:35:45.248Z,15.40
2018-10-17T01:36:18.904Z,15.40
2018-10-17T01:36:52.577Z,15.40
2018-10-17T01:37:26.206Z,15.50
2018-10-17T01:37:59.864Z,15.30
2018-10-17T01:38:33.560Z,15.40
2018-10-17T01:39:09.386Z,15.40
2018-10-17T01:39:42.993Z,15.40
2018-10-17T01:40:16.668Z,15.40
2018-10-17T01:40:50.296Z,15.30
2018-10-17T01:41:23.954Z,15.30
2018-10-17T01:41:57.606Z,15.40
2018-10-17T01:42:31.258Z,15.30
2018-10-17T01:43:05.029Z,15.40
2018-10-17T01:43:38.584Z,15.30
2018-10-17T01:44:12.221Z,15.30
2018-10-17T01:44:46.088Z,15.30
2018-10-17T01:45:19.750Z,15.40
2018-10-17T01:45:53.487Z,15.30
2018-10-17T01:46:27.137Z,15.30
2018-10-17T01:47:00.827Z,15.40
2018-10-17T01:47:34.444Z,15.30
2018-10-17T01:48:08.057Z,15.30
2018-10-17T01:48:41.691Z,15.30
2018-10-17T01:49:15.405Z,15.30
2018-10-17T01:49:49.031Z,15.30
2018-10-17T01:50:22.678Z,15.30
2018-10-17T01:50:56.461Z,15.30
2018-10-17T01:51:30.154Z,15.30
2018-10-17T01:52:03.842Z,15.30
2018-10-17T01:52:37.465Z,15.40
2018-10-17T01:53:11.245Z,15.40
2018-10-17T01:53:44.758Z,15.20
2018-10-17T01:54:18.484Z,15.30
2018-10-17T01:54:52.138Z,15.30
2018-10-17T01:55:25.773Z,15.30
2018-10-17T01:55:59.434Z,15.30
2018-10-17T01:56:33.070Z,15.30
2018-10-17T01:57:07.162Z,15.30
2018-10-17T01:57:40.825Z,15.30
2018-10-17T01:58:14.458Z,15.30
2018-10-17T01:58:48.128Z,15.30
2018-10-17T01:59:21.761Z,15.30
2018-10-17T01:59:55.448Z,15.30
2018-10-17T02:00:29.128Z,15.20
2018-10-17T02:01:02.877Z,15.20
2018-10-17T02:01:36.498Z,15.20
2018-10-17T02:02:10.425Z,15.20
2018-10-17T02:02:44.073Z,15.20
2018-10-17T02:03:17.724Z,15.20
2018-10-17T02:03:51.376Z,15.20
2018-10-17T02:04:25.016Z,15.20
2018-10-17T02:04:58.673Z,15.20
2018-10-17T02:05:32.324Z,15.20
2018-10-17T02:06:07.233Z,15.20
2018-10-17T02:06:40.906Z,15.20
2018-10-17T02:07:14.615Z,15.10
2018-10-17T02:07:48.230Z,15.20
2018-10-17T02:08:22.140Z,15.20
2018-10-17T02:08:55.750Z,15.10
2018-10-17T02:09:29.397Z,15.30
2018-10-17T02:10:03.059Z,15.20
2018-10-17T02:10:36.688Z,15.20
2018-10-17T02:11:10.423Z,15.20
2018-10-17T02:11:44.041Z,15.20
2018-10-17T02:12:17.748Z,15.10
2018-10-17T02:12:51.432Z,15.20
2018-10-17T02:13:25.072Z,15.10
2018-10-17T02:13:58.689Z,15.10
2018-10-17T02:14:32.362Z,15.10
2018-10-17T02:15:06.475Z,15.10
2018-10-17T02:15:40.186Z,15.00
2018-10-17T02:16:13.814Z,15.10
2018-10-17T02:16:47.479Z,15.10
2018-10-17T02:17:21.129Z,15.10
2018-10-17T02:17:54.742Z,15.10
2018-10-17T02:18:28.383Z,15.10
2018-10-17T02:19:02.105Z,15.10
2018-10-17T02:19:35.712Z,15.10
2018-10-17T02:20:09.366Z,15.10
2018-10-17T02:20:43.044Z,15.00
2018-10-17T02:21:16.738Z,15.10
2018-10-17T02:21:50.404Z,15.00
2018-10-17T02:22:24.056Z,15.00
2018-10-17T02:22:57.769Z,15.00
2018-10-17T02:23:31.383Z,15.10
2018-10-17T02:24:06.020Z,15.00
2018-10-17T02:24:39.661Z,15.00
2018-10-17T02:25:13.340Z,15.10
2018-10-17T02:25:46.936Z,15.00
2018-10-17T02:26:20.619Z,15.00
2018-10-17T02:26:54.292Z,15.00
2018-10-17T02:27:27.957Z,15.00
2018-10-17T02:28:01.661Z,15.10
2018-10-17T02:28:35.286Z,15.10
2018-10-17T02:29:09.004Z,15.00
2018-10-17T02:29:42.611Z,14.90
2018-10-17T02:30:16.255Z,15.00
2018-10-17T02:30:49.912Z,15.00
2018-10-17T02:31:23.552Z,15.00
2018-10-17T02:31:57.196Z,15.00
2018-10-17T02:32:30.853Z,15.00
2018-10-17T02:33:04.976Z,14.90
2018-10-17T02:33:38.709Z,14.90
2018-10-17T02:34:12.377Z,14.90
2018-10-17T02:34:51.755Z,14.90
2018-10-17T02:35:25.423Z,15.00
2018-10-17T02:35:59.061Z,15.00
2018-10-17T02:36:32.711Z,14.90
2018-10-17T02:37:06.428Z,15.00
2018-10-17T02:37:40.024Z,14.90
2018-10-17T02:38:13.656Z,15.00
2018-10-17T02:38:47.273Z,14.90
2018-10-17T02:39:20.964Z,15.00
2018-10-17T02:39:54.639Z,15.00
2018-10-17T02:40:28.334Z,14.90
2018-10-17T02:41:02.132Z,15.00
2018-10-17T02:41:35.827Z,15.00
2018-10-17T02:42:09.437Z,14.90
2018-10-17T02:42:43.107Z,14.90
2018-10-17T02:43:16.891Z,14.90
2018-10-17T02:43:50.405Z,14.90
2018-10-17T02:44:24.011Z,14.90
2018-10-17T02:44:57.905Z,14.80
2018-10-17T02:45:31.612Z,14.90
2018-10-17T02:46:06.091Z,14.80
2018-10-17T02:46:39.763Z,14.80
2018-10-17T02:47:13.488Z,14.80
2018-10-17T02:47:47.123Z,14.90
2018-10-17T02:48:20.766Z,14.90
2018-10-17T02:48:54.441Z,14.90
2018-10-17T02:49:28.123Z,14.80
2018-10-17T02:50:06.520Z,14.90
2018-10-17T02:51:27.933Z,14.80
2018-10-17T02:52:01.576Z,14.80
2018-10-17T02:52:37.273Z,14.80
2018-10-17T02:53:11.029Z,14.80
2018-10-17T02:53:44.615Z,14.70
2018-10-17T02:54:18.273Z,14.80
2018-10-17T02:54:51.944Z,14.80
2018-10-17T02:55:25.627Z,14.70
2018-10-17T02:55:59.317Z,14.80
2018-10-17T02:56:32.955Z,14.80
2018-10-17T02:57:06.627Z,14.80
2018-10-17T02:57:40.243Z,14.70
2018-10-17T02:58:13.907Z,14.70
2018-10-17T02:58:47.567Z,14.70
2018-10-17T02:59:21.248Z,14.70
2018-10-17T02:59:54.893Z,14.70
2018-10-17T03:00:28.545Z,14.70
2018-10-17T03:01:02.241Z,14.60
2018-10-17T03:01:35.855Z,14.80
2018-10-17T03:02:09.485Z,14.70
2018-10-17T03:02:43.147Z,14.70
2018-10-17T03:03:16.785Z,14.70
2018-10-17T03:03:50.430Z,14.60
2018-10-17T03:04:24.095Z,14.70
2018-10-17T03:04:57.809Z,14.60
2018-10-17T03:05:31.447Z,14.60
2018-10-17T03:06:05.296Z,14.60
2018-10-17T03:06:38.920Z,14.60
2018-10-17T03:07:12.699Z,14.60
2018-10-17T03:07:46.304Z,14.60
2018-10-17T03:08:20.001Z,14.60
2018-10-17T03:08:53.690Z,14.70
2018-10-17T03:09:27.351Z,14.60
2018-10-17T03:10:00.998Z,14.50
2018-10-17T03:10:34.612Z,14.60
2018-10-17T03:11:08.261Z,14.60
2018-10-17T03:11:41.877Z,14.60
2018-10-17T03:12:15.562Z,14.60
2018-10-17T03:12:49.214Z,14.60
2018-10-17T03:13:22.850Z,14.60
2018-10-17T03:13:56.484Z,14.60
2018-10-17T03:14:30.168Z,14.60
2018-10-17T03:15:04.022Z,14.60
2018-10-17T03:15:37.649Z,14.50
2018-10-17T03:16:11.315Z,14.50
2018-10-17T03:16:44.966Z,14.50
2018-10-17T03:17:19.064Z,14.50
2018-10-17T03:17:52.572Z,14.50
2018-10-17T03:18:26.258Z,14.50
2018-10-17T03:18:59.976Z,14.50
2018-10-17T03:19:33.648Z,14.50
2018-10-17T03:20:09.390Z,14.50
2018-10-17T03:20:43.075Z,14.60
2018-10-17T03:21:16.703Z,14.50
2018-10-17T03:21:50.363Z,14.60
2018-10-17T03:22:24.059Z,14.50
2018-10-17T03:22:57.700Z,14.50
2018-10-17T03:23:31.393Z,14.40
2018-10-17T03:24:05.453Z,14.50
2018-10-17T03:24:39.156Z,14.50
2018-10-17T03:25:12.938Z,14.50
2018-10-17T03:25:46.476Z,14.40
2018-10-17T03:26:20.142Z,14.50
2018-10-17T03:26:53.800Z,14.40
2018-10-17T03:27:27.475Z,14.40
2018-10-17T03:28:01.238Z,14.50
2018-10-17T03:28:34.893Z,14.40
2018-10-17T03:29:08.593Z,14.40
2018-10-17T03:29:42.196Z,14.40
2018-10-17T03:30:15.893Z,14.40
2018-10-17T03:30:49.611Z,14.40
2018-10-17T03:31:23.301Z,14.40
2018-10-17T03:31:56.984Z,14.40
2018-10-17T03:32:30.678Z,14.40
2018-10-17T03:33:04.376Z,14.40
2018-10-17T03:33:37.986Z,14.50
2018-10-17T03:34:11.597Z,14.40
2018-10-17T03:34:45.280Z,14.40
2018-10-17T03:35:18.996Z,14.40
2018-10-17T03:35:52.609Z,14.50
2018-10-17T03:36:26.498Z,14.40
2018-10-17T03:37:00.154Z,14.40
2018-10-17T03:37:34.073Z,14.30
2018-10-17T03:38:07.699Z,14.30
2018-10-17T03:38:41.348Z,14.40
2018-10-17T03:39:14.950Z,14.40
2018-10-17T03:39:48.628Z,14.40
2018-10-17T03:40:22.280Z,14.40
2018-10-17T03:40:56.009Z,14.40
2018-10-17T03:41:29.607Z,14.40
2018-10-17T03:42:03.318Z,14.30
2018-10-17T03:42:36.982Z,14.30
2018-10-17T03:43:10.638Z,14.40
2018-10-17T03:43:44.303Z,14.40
2018-10-17T03:44:18.047Z,14.40
2018-10-17T03:44:51.727Z,14.50
2018-10-17T03:45:25.350Z,14.40
2018-10-17T03:45:59.025Z,14.30
2018-10-17T03:46:32.667Z,14.40
2018-10-17T03:47:06.498Z,14.40
2018-10-17T03:47:40.061Z,14.40
2018-10-17T03:48:13.691Z,14.40
2018-10-17T03:48:47.345Z,14.50
2018-10-17T03:49:21.081Z,14.40
2018-10-17T03:49:54.732Z,14.40
2018-10-17T03:50:28.658Z,14.40
2018-10-17T03:51:02.328Z,14.50
2018-10-17T03:51:35.979Z,14.40
2018-10-17T03:52:09.642Z,14.40
2018-10-17T03:52:43.276Z,14.30
2018-10-17T03:53:17.020Z,14.40
2018-10-17T03:53:50.569Z,14.40
2018-10-17T03:54:24.226Z,14.40
2018-10-17T03:54:57.897Z,14.50
2018-10-17T03:55:31.521Z,14.50
2018-10-17T03:56:05.519Z,14.40
2018-10-17T03:56:39.136Z,14.50
2018-10-17T03:57:12.922Z,14.50
2018-10-17T03:57:46.522Z,14.40
2018-10-17T03:58:20.198Z,14.40
2018-10-17T03:58:53.947Z,14.40
2018-10-17T03:59:27.768Z,14.40
2018-10-17T04:00:01.362Z,14.50
2018-10-17T04:00:35.005Z,14.40
2018-10-17T04:01:08.673Z,14.40
2018-10-17T04:01:42.429Z,14.40
2018-10-17T04:02:16.090Z,14.40
2018-10-17T04:02:49.768Z,14.40
2018-10-17T04:03:23.396Z,14.40
2018-10-17T04:03:57.309Z,14.40
2018-10-17T04:04:30.980Z,14.40
2018-10-17T04:05:05.583Z,14.40
2018-10-17T04:05:39.156Z,14.40
2018-10-17T04:06:12.796Z,14.40
2018-10-17T04:06:46.445Z,14.40
2018-10-17T04:07:20.169Z,14.40
2018-10-17T04:07:53.776Z,14.40
2018-10-17T04:08:27.410Z,14.30
2018-10-17T04:09:01.089Z,14.40
2018-10-17T04:09:34.784Z,14.40
2018-10-17T04:10:08.396Z,14.40
2018-10-17T04:10:42.069Z,14.40
2018-10-17T04:11:15.733Z,14.40
2018-10-17T04:11:49.394Z,14.30
2018-10-17T04:12:23.029Z,14.30
2018-10-17T04:12:56.681Z,14.40
2018-10-17T04:13:30.330Z,14.30
2018-10-17T04:14:04.158Z,14.30
2018-10-17T04:14:37.800Z,14.40
2018-10-17T04:15:11.503Z,14.40
2018-10-17T04:15:45.165Z,14.40
2018-10-17T04:16:18.839Z,14.40
2018-10-17T04:16:52.531Z,14.30
2018-10-17T04:17:26.192Z,14.40
2018-10-17T04:17:59.827Z,14.40
2018-10-17T04:18:33.472Z,14.40
2018-10-17T04:19:07.219Z,14.30
2018-10-17T04:19:40.804Z,14.40
2018-10-17T04:20:14.449Z,14.30
2018-10-17T04:20:48.115Z,14.30
2018-10-17T04:21:21.694Z,14.30
2018-10-17T04:21:55.370Z,14.40
2018-10-17T04:22:29.097Z,14.50
2018-10-17T04:23:02.779Z,14.30
2018-10-17T04:23:36.396Z,14.30
2018-10-17T04:24:10.060Z,14.40
2018-10-17T04:24:43.730Z,14.40
2018-10-17T04:25:17.482Z,14.30
2018-10-17T04:25:51.050Z,14.30
2018-10-17T04:26:24.744Z,14.30
2018-10-17T04:26:58.398Z,14.40
2018-10-17T04:27:32.040Z,14.40
2018-10-17T04:28:05.757Z,14.40
2018-10-17T04:28:39.378Z,14.30
2018-10-17T04:29:13.136Z,14.30
2018-10-17T04:29:46.640Z,14.30
2018-10-17T04:30:20.328Z,14.30
2018-10-17T04:30:53.992Z,14.30
2018-10-17T04:31:27.952Z,14.30
2018-10-17T04:32:01.619Z,14.30
2018-10-17T04:32:35.240Z,14.30
2018-10-17T04:33:08.928Z,14.20
2018-10-17T04:33:42.638Z,14.30
2018-10-17T04:34:16.321Z,14.40
2018-10-17T04:34:49.989Z,14.30
2018-10-17T04:35:23.645Z,14.30
2018-10-17T04:35:57.314Z,14.30
2018-10-17T04:36:30.984Z,14.20
2018-10-17T04:37:05.313Z,14.30
2018-10-17T04:37:38.948Z,14.30
2018-10-17T04:38:12.674Z,14.20
2018-10-17T04:38:46.288Z,14.30
2018-10-17T04:39:19.908Z,14.30
2018-10-17T04:39:53.528Z,14.30
2018-10-17T04:40:27.180Z,14.30
2018-10-17T04:41:00.809Z,14.30
2018-10-17T04:41:34.509Z,14.30
2018-10-17T04:42:08.143Z,14.30
2018-10-17T04:42:41.773Z,14.30
2018-10-17T04:43:15.456Z,14.30
2018-10-17T04:43:49.050Z,14.30
2018-10-17T04:44:22.689Z,14.20
2018-10-17T04:44:56.340Z,14.20
2018-10-17T04:45:29.959Z,14.30
2018-10-17T04:46:03.738Z,14.30
2018-10-17T04:46:37.384Z,14.30
2018-10-17T04:47:11.108Z,14.30
2018-10-17T04:47:44.734Z,14.30
2018-10-17T04:48:18.392Z,14.30
2018-10-17T04:48:52.054Z,14.30
2018-10-17T04:49:25.734Z,14.20
2018-10-17T04:49:59.385Z,14.20
2018-10-17T04:50:33.018Z,14.30
2018-10-17T04:51:06.719Z,14.30
2018-10-17T04:51:40.409Z,14.30
2018-10-17T04:52:14.052Z,14.20
2018-10-17T04:52:47.689Z,14.30
2018-10-17T04:53:21.361Z,14.20
2018-10-17T04:53:55.032Z,14.20
2018-10-17T04:54:28.696Z,14.20
2018-10-17T04:55:02.650Z,14.20
2018-10-17T04:55:36.331Z,14.30
2018-10-17T04:56:10.031Z,14.30
2018-10-17T04:56:43.704Z,14.30
2018-10-17T04:57:17.344Z,14.30
2018-10-17T04:57:50.956Z,14.30
2018-10-17T04:58:24.630Z,14.30
2018-10-17T04:58:58.323Z,14.20
2018-10-17T04:59:31.952Z,14.30
2018-10-17T05:00:10.425Z,14.20
2018-10-17T05:00:44.092Z,14.30
2018-10-17T05:01:17.747Z,14.30
2018-10-17T05:01:51.417Z,14.30
2018-10-17T05:02:25.035Z,14.30
2018-10-17T05:02:58.712Z,14.40
2018-10-17T05:03:32.364Z,14.30
2018-10-17T05:04:06.770Z,14.30
2018-10-17T05:04:40.541Z,14.30
2018-10-17T05:05:14.248Z,14.30
2018-10-17T05:05:47.850Z,14.30
2018-10-17T05:06:21.520Z,14.30
2018-10-17T05:06:55.220Z,14.40
2018-10-17T05:07:28.822Z,14.30
2018-10-17T05:08:02.556Z,14.30
2018-10-17T05:08:36.273Z,14.40
2018-10-17T05:09:10.568Z,14.40
2018-10-17T05:09:44.201Z,14.30
2018-10-17T05:10:17.829Z,14.30
2018-10-17T05:10:51.504Z,14.30
2018-10-17T05:11:25.153Z,14.40
2018-10-17T05:11:58.805Z,14.50
2018-10-17T05:12:32.489Z,14.40
2018-10-17T05:13:06.229Z,14.40
2018-10-17T05:13:39.807Z,14.40
2018-10-17T05:14:13.459Z,14.40
2018-10-17T05:14:47.149Z,14.40
2018-10-17T05:15:20.896Z,14.30
2018-10-17T05:15:54.552Z,14.40
2018-10-17T05:16:28.338Z,14.40
2018-10-17T05:17:02.051Z,14.40
2018-10-17T05:17:35.655Z,14.40
2018-10-17T05:18:09.304Z,14.40
2018-10-17T05:18:43.205Z,14.50
2018-10-17T05:19:16.897Z,14.50
2018-10-17T05:19:50.576Z,14.50
2018-10-17T05:20:24.265Z,14.40
2018-10-17T05:20:57.969Z,14.50
2018-10-17T05:21:31.623Z,14.40
2018-10-17T05:22:05.674Z,14.50
2018-10-17T05:22:39.317Z,14.50
2018-10-17T05:23:13.123Z,14.50
2018-10-17T05:23:46.808Z,14.40
2018-10-17T05:24:20.447Z,14.50
2018-10-17T05:24:54.164Z,14.40
2018-10-17T05:25:27.783Z,14.50
2018-10-17T05:26:01.477Z,14.40
2018-10-17T05:26:35.206Z,14.50
2018-10-17T05:27:08.840Z,14.50
2018-10-17T05:27:42.473Z,14.50
2018-10-17T05:28:16.171Z,14.50
2018-10-17T05:28:49.799Z,14.50
2018-10-17T05:29:23.453Z,14.40
2018-10-17T05:29:57.277Z,14.50
2018-10-17T05:30:30.993Z,14.50
2018-10-17T05:31:05.214Z,14.50
2018-10-17T05:31:38.874Z,14.50
2018-10-17T05:32:12.587Z,14.40
2018-10-17T05:32:46.243Z,14.40
2018-10-17T05:33:19.886Z,14.40
2018-10-17T05:33:53.583Z,14.50
2018-10-17T05:34:27.213Z,14.50
2018-10-17T05:35:00.898Z,14.40
2018-10-17T05:35:34.541Z,14.40
2018-10-17T05:36:08.197Z,14.40
2018-10-17T05:36:41.871Z,14.50
2018-10-17T05:37:15.637Z,14.40
2018-10-17T05:37:49.399Z,14.40
2018-10-17T05:38:22.905Z,14.50
2018-10-17T05:38:56.561Z,14.50
2018-10-17T05:39:30.337Z,14.40
2018-10-17T05:40:04.580Z,14.40
2018-10-17T05:40:38.225Z,14.40
2018-10-17T05:41:11.974Z,14.50
2018-10-17T05:41:45.589Z,14.40
2018-10-17T05:42:19.278Z,14.40
2018-10-17T05:42:52.967Z,14.40
2018-10-17T05:43:26.641Z,14.40
2018-10-17T05:44:00.267Z,14.40
2018-10-17T05:44:34.175Z,14.40
2018-10-17T05:45:08.355Z,14.40
2018-10-17T05:45:42.029Z,14.40
2018-10-17T05:46:15.717Z,14.40
2018-10-17T05:46:49.397Z,14.30
2018-10-17T05:47:23.174Z,14.40
2018-10-17T05:47:56.877Z,14.40
2018-10-17T05:48:30.514Z,14.30
2018-10-17T05:49:04.638Z,14.40
2018-10-17T05:49:38.288Z,14.30
2018-10-17T05:50:11.963Z,14.30
2018-10-17T05:50:45.606Z,14.40
2018-10-17T05:51:19.264Z,14.40
2018-10-17T05:51:52.915Z,14.30
2018-10-17T05:52:26.567Z,14.30
2018-10-17T05:53:00.398Z,14.30
2018-10-17T05:53:34.089Z,14.30
2018-10-17T05:54:07.721Z,14.30
2018-10-17T05:54:41.406Z,14.40
2018-10-17T05:55:15.200Z,14.30
2018-10-17T05:55:48.707Z,14.40
2018-10-17T05:56:22.363Z,14.40
2018-10-17T05:56:56.155Z,14.30
2018-10-17T05:57:29.824Z,14.40
2018-10-17T05:58:03.710Z,14.40
2018-10-17T05:58:37.327Z,14.30
2018-10-17T05:59:11.028Z,14.30
2018-10-17T05:59:44.839Z,14.40
2018-10-17T06:00:18.491Z,14.40
2018-10-17T06:00:52.242Z,14.40
2018-10-17T06:01:25.954Z,14.40
2018-10-17T06:02:00.509Z,14.40
2018-10-17T06:02:35.317Z,14.30
2018-10-17T06:03:08.971Z,14.40
2018-10-17T06:03:42.626Z,14.40
2018-10-17T06:04:16.256Z,14.30
2018-10-17T06:04:49.912Z,14.40
2018-10-17T06:05:23.556Z,14.40
2018-10-17T06:05:57.259Z,14.30
2018-10-17T06:06:30.897Z,14.30
2018-10-17T06:07:05.017Z,14.40
2018-10-17T06:07:38.648Z,14.40
2018-10-17T06:08:12.321Z,14.40
2018-10-17T06:08:45.986Z,14.40
2018-10-17T06:09:19.623Z,14.30
2018-10-17T06:09:53.332Z,14.30
2018-10-17T06:10:27.094Z,14.40
2018-10-17T06:11:00.698Z,14.40
2018-10-17T06:11:34.374Z,14.40
2018-10-17T06:12:07.992Z,14.40
2018-10-17T06:12:41.640Z,14.40
2018-10-17T06:13:15.367Z,14.40
2018-10-17T06:13:48.991Z,14.40
2018-10-17T06:14:22.610Z,14.30
2018-10-17T06:14:56.249Z,14.40
2018-10-17T06:15:29.930Z,14.30
2018-10-17T06:16:03.678Z,14.30
2018-10-17T06:16:37.347Z,14.40
2018-10-17T06:17:11.011Z,14.30
2018-10-17T06:17:44.640Z,14.40
2018-10-17T06:18:18.324Z,14.40
2018-10-17T06:18:51.987Z,14.30
2018-10-17T06:19:25.638Z,14.30
2018-10-17T06:19:59.320Z,14.40
2018-10-17T06:20:32.944Z,14.40
2018-10-17T06:21:06.926Z,14.40
2018-10-17T06:21:40.674Z,14.40
2018-10-17T06:22:14.292Z,14.40
2018-10-17T06:22:47.948Z,14.30
2018-10-17T06:23:21.602Z,14.40
2018-10-17T06:23:55.244Z,14.40
2018-10-17T06:24:28.906Z,14.40
2018-10-17T06:25:02.644Z,14.40
2018-10-17T06:25:36.186Z,14.50
2018-10-17T06:26:09.876Z,14.50
2018-10-17T06:26:43.521Z,14.40
2018-10-17T06:27:17.183Z,14.40
2018-10-17T06:27:50.826Z,14.40
2018-10-17T06:28:24.577Z,14.50
2018-10-17T06:28:58.222Z,14.40
2018-10-17T06:29:31.908Z,14.40
2018-10-17T06:30:08.192Z,14.50
2018-10-17T06:30:41.849Z,14.40
2018-10-17T06:31:15.797Z,14.50
2018-10-17T06:31:49.268Z,14.40
2018-10-17T06:32:22.923Z,14.50
2018-10-17T06:32:56.566Z,14.50
2018-10-17T06:33:30.253Z,14.50
2018-10-17T06:34:04.015Z,14.40
2018-10-17T06:34:37.711Z,14.50
2018-10-17T06:35:11.348Z,14.40
2018-10-17T06:35:44.960Z,14.50
2018-10-17T06:36:18.602Z,14.50
2018-10-17T06:36:52.265Z,14.50
2018-10-17T06:37:25.900Z,14.50
2018-10-17T06:37:59.542Z,14.60
2018-10-17T06:38:33.160Z,14.50
2018-10-17T06:39:10.379Z,14.50
2018-10-17T06:39:44.038Z,14.60
2018-10-17T06:40:17.728Z,14.60
2018-10-17T06:40:51.401Z,14.60
2018-10-17T06:41:25.012Z,14.60
2018-10-17T06:41:58.690Z,14.60
2018-10-17T06:42:32.332Z,14.70
2018-10-17T06:43:06.089Z,14.70
2018-10-17T06:43:39.768Z,14.70
2018-10-17T06:44:13.353Z,14.70
2018-10-17T06:44:47.050Z,14.80
2018-10-17T06:45:20.729Z,14.80
2018-10-17T06:45:54.397Z,14.80
2018-10-17T06:46:28.116Z,14.80
2018-10-17T06:47:02.396Z,14.80
2018-10-17T06:47:36.052Z,14.90
2018-10-17T06:48:09.686Z,14.80
2018-10-17T06:48:43.306Z,14.90
2018-10-17T06:49:17.117Z,14.90
2018-10-17T06:49:50.667Z,15.00
2018-10-17T06:50:24.316Z,14.90
2018-10-17T06:50:57.995Z,15.00
2018-10-17T06:51:31.560Z,15.10
2018-10-17T06:52:05.680Z,15.10
2018-10-17T06:52:39.338Z,15.00
2018-10-17T06:53:13.093Z,15.00
2018-10-17T06:53:46.705Z,15.10
2018-10-17T06:54:20.472Z,15.10
2018-10-17T06:54:54.153Z,15.10
2018-10-17T06:55:27.785Z,15.10
2018-10-17T06:56:01.491Z,15.20
2018-10-17T06:56:35.160Z,15.20
2018-10-17T06:57:08.870Z,15.30
2018-10-17T06:57:42.517Z,15.30
2018-10-17T06:58:16.266Z,15.20
2018-10-17T06:58:49.915Z,15.30
2018-10-17T06:59:23.588Z,15.20
2018-10-17T06:59:57.269Z,15.40
2018-10-17T07:00:30.930Z,15.30
2018-10-17T07:01:04.674Z,15.30
2018-10-17T07:01:38.279Z,15.30
2018-10-17T07:02:11.999Z,15.40
2018-10-17T07:02:45.574Z,15.30
2018-10-17T07:03:19.268Z,15.40
2018-10-17T07:03:52.935Z,15.50
2018-10-17T07:04:26.578Z,15.50
2018-10-17T07:05:00.236Z,15.40
2018-10-17T07:05:33.884Z,15.40
2018-10-17T07:06:07.531Z,15.50
2018-10-17T07:06:41.270Z,15.50
2018-10-17T07:07:14.923Z,15.60
2018-10-17T07:07:48.589Z,15.60
2018-10-17T07:08:22.598Z,15.60
2018-10-17T07:08:56.133Z,15.60
2018-10-17T07:09:29.805Z,15.70
2018-10-17T07:10:03.550Z,15.70
2018-10-17T07:10:37.192Z,15.60
2018-10-17T07:11:10.945Z,15.70
2018-10-17T07:11:44.534Z,15.70
2018-10-17T07:12:18.186Z,15.70
2018-10-17T07:12:51.891Z,15.70
2018-10-17T07:13:25.545Z,15.70
2018-10-17T07:13:59.194Z,15.70
2018-10-17T07:14:32.850Z,15.70
2018-10-17T07:15:07.186Z,15.80